sensor_id;sensor_type;location;lat;lon;timestamp;pressure;altitude;pressure_sealevel;temperature;humidity
75553;BME280;64136;53.118;17.996;2023-03-01T00:01:45;102441.20;;;-2.01;69.67
75553;BME280;64136;53.118;17.996;2023-03-01T00:04:12;102441.04;;;-2.01;69.62
75553;BME280;64136;53.118;17.996;2023-03-01T00:06:38;102446.26;;;-1.99;69.78
75553;BME280;64136;53.118;17.996;2023-03-01T00:09:06;102445.59;;;-1.98;69.48
75553;BME280;64136;53.118;17.996;2023-03-01T00:11:33;102446.98;;;-1.97;69.99
75553;BME280;64136;53.118;17.996;2023-03-01T00:14:01;102446.60;;;-2.00;70.14
75553;BME280;64136;53.118;17.996;2023-03-01T00:16:34;102443.08;;;-2.03;70.61
75553;BME280;64136;53.118;17.996;2023-03-01T00:19:01;102443.86;;;-2.07;70.80
75553;BME280;64136;53.118;17.996;2023-03-01T00:21:28;102442.10;;;-2.08;70.77
75553;BME280;64136;53.118;17.996;2023-03-01T00:23:55;102440.54;;;-2.08;70.88
75553;BME280;64136;53.118;17.996;2023-03-01T00:26:23;102434.75;;;-2.11;71.05
75553;BME280;64136;53.118;17.996;2023-03-01T00:28:50;102425.30;;;-2.17;71.34
75553;BME280;64136;53.118;17.996;2023-03-01T00:31:19;102417.94;;;-2.22;71.49
75553;BME280;64136;53.118;17.996;2023-03-01T00:33:46;102418.77;;;-2.24;71.58
75553;BME280;64136;53.118;17.996;2023-03-01T00:36:14;102415.80;;;-2.25;71.45
75553;BME280;64136;53.118;17.996;2023-03-01T00:38:43;102412.00;;;-2.24;71.24
75553;BME280;64136;53.118;17.996;2023-03-01T00:41:12;102410.85;;;-2.20;70.87
75553;BME280;64136;53.118;17.996;2023-03-01T00:43:40;102410.59;;;-2.14;70.33
75553;BME280;64136;53.118;17.996;2023-03-01T00:46:10;102410.77;;;-2.13;70.14
75553;BME280;64136;53.118;17.996;2023-03-01T00:48:37;102411.98;;;-2.14;70.59
75553;BME280;64136;53.118;17.996;2023-03-01T00:51:06;102414.43;;;-2.12;70.18
75553;BME280;64136;53.118;17.996;2023-03-01T00:53:33;102411.83;;;-2.12;70.12
75553;BME280;64136;53.118;17.996;2023-03-01T00:56:00;102412.35;;;-2.12;70.05
75553;BME280;64136;53.118;17.996;2023-03-01T00:58:27;102407.84;;;-2.12;70.28
75553;BME280;64136;53.118;17.996;2023-03-01T01:00:53;102403.27;;;-2.16;70.57
75553;BME280;64136;53.118;17.996;2023-03-01T01:03:20;102398.67;;;-2.22;71.07
75553;BME280;64136;53.118;17.996;2023-03-01T01:05:47;102394.63;;;-2.25;71.16
75553;BME280;64136;53.118;17.996;2023-03-01T01:08:13;102394.48;;;-2.23;71.00
75553;BME280;64136;53.118;17.996;2023-03-01T01:10:39;102396.41;;;-2.22;70.93
75553;BME280;64136;53.118;17.996;2023-03-01T01:13:07;102390.93;;;-2.27;71.17
75553;BME280;64136;53.118;17.996;2023-03-01T01:15:34;102387.16;;;-2.34;71.41
75553;BME280;64136;53.118;17.996;2023-03-01T01:18:01;102382.38;;;-2.40;71.57
75553;BME280;64136;53.118;17.996;2023-03-01T01:20:28;102380.04;;;-2.46;71.99
75553;BME280;64136;53.118;17.996;2023-03-01T01:22:55;102373.16;;;-2.51;72.07
75553;BME280;64136;53.118;17.996;2023-03-01T01:25:21;102366.38;;;-2.52;72.17
75553;BME280;64136;53.118;17.996;2023-03-01T01:27:47;102364.45;;;-2.54;72.13
75553;BME280;64136;53.118;17.996;2023-03-01T01:30:14;102363.54;;;-2.56;72.01
75553;BME280;64136;53.118;17.996;2023-03-01T01:32:40;102361.95;;;-2.58;71.99
75553;BME280;64136;53.118;17.996;2023-03-01T01:35:07;102359.14;;;-2.60;72.15
75553;BME280;64136;53.118;17.996;2023-03-01T01:37:33;102362.58;;;-2.62;72.16
75553;BME280;64136;53.118;17.996;2023-03-01T01:40:01;102360.83;;;-2.63;72.08
75553;BME280;64136;53.118;17.996;2023-03-01T01:42:30;102355.33;;;-2.60;71.78
75553;BME280;64136;53.118;17.996;2023-03-01T01:47:47;102344.31;;;-2.54;71.60
75553;BME280;64136;53.118;17.996;2023-03-01T01:50:17;102336.88;;;-2.53;71.45
75553;BME280;64136;53.118;17.996;2023-03-01T01:52:44;102338.99;;;-2.51;71.07
75553;BME280;64136;53.118;17.996;2023-03-01T01:55:16;102330.02;;;-2.49;71.14
75553;BME280;64136;53.118;17.996;2023-03-01T01:57:49;102329.54;;;-2.48;71.06
75553;BME280;64136;53.118;17.996;2023-03-01T02:00:25;102335.11;;;-2.45;70.86
75553;BME280;64136;53.118;17.996;2023-03-01T02:02:55;102333.58;;;-2.44;70.89
75553;BME280;64136;53.118;17.996;2023-03-01T02:08:13;102328.90;;;-2.43;70.71
75553;BME280;64136;53.118;17.996;2023-03-01T02:10:40;102329.61;;;-2.42;70.71
75553;BME280;64136;53.118;17.996;2023-03-01T02:13:07;102332.61;;;-2.39;70.51
75553;BME280;64136;53.118;17.996;2023-03-01T02:15:35;102330.77;;;-2.34;70.33
75553;BME280;64136;53.118;17.996;2023-03-01T02:20:38;102337.04;;;-2.24;69.71
75553;BME280;64136;53.118;17.996;2023-03-01T02:23:07;102339.64;;;-2.23;69.87
75553;BME280;64136;53.118;17.996;2023-03-01T02:30:49;102333.65;;;-2.27;69.90
75553;BME280;64136;53.118;17.996;2023-03-01T02:33:19;102331.03;;;-2.29;69.91
75553;BME280;64136;53.118;17.996;2023-03-01T02:35:45;102328.08;;;-2.28;70.12
75553;BME280;64136;53.118;17.996;2023-03-01T02:38:12;102329.10;;;-2.30;70.36
75553;BME280;64136;53.118;17.996;2023-03-01T02:40:39;102324.77;;;-2.30;70.32
75553;BME280;64136;53.118;17.996;2023-03-01T02:43:08;102319.56;;;-2.30;70.41
75553;BME280;64136;53.118;17.996;2023-03-01T02:45:36;102317.91;;;-2.25;70.04
75553;BME280;64136;53.118;17.996;2023-03-01T02:48:03;102316.26;;;-2.20;69.86
75553;BME280;64136;53.118;17.996;2023-03-01T02:50:55;102313.34;;;-2.18;69.93
75553;BME280;64136;53.118;17.996;2023-03-01T02:53:41;102310.91;;;-2.18;69.94
75553;BME280;64136;53.118;17.996;2023-03-01T02:56:08;102308.28;;;-2.20;70.15
75553;BME280;64136;53.118;17.996;2023-03-01T03:01:12;102311.69;;;-2.24;70.16
75553;BME280;64136;53.118;17.996;2023-03-01T03:03:41;102310.08;;;-2.26;70.03
75553;BME280;64136;53.118;17.996;2023-03-01T03:06:08;102302.54;;;-2.31;70.14
75553;BME280;64136;53.118;17.996;2023-03-01T03:08:35;102307.13;;;-2.38;70.61
75553;BME280;64136;53.118;17.996;2023-03-01T03:11:02;102305.66;;;-2.43;70.88
75553;BME280;64136;53.118;17.996;2023-03-01T03:13:29;102306.53;;;-2.42;70.90
75553;BME280;64136;53.118;17.996;2023-03-01T03:15:56;102303.23;;;-2.42;70.77
75553;BME280;64136;53.118;17.996;2023-03-01T03:18:23;102304.78;;;-2.43;70.82
75553;BME280;64136;53.118;17.996;2023-03-01T03:20:52;102305.45;;;-2.45;70.96
75553;BME280;64136;53.118;17.996;2023-03-01T03:23:21;102300.89;;;-2.48;71.20
75553;BME280;64136;53.118;17.996;2023-03-01T03:25:49;102295.90;;;-2.55;71.54
75553;BME280;64136;53.118;17.996;2023-03-01T03:29:02;102292.52;;;-2.62;71.71
75553;BME280;64136;53.118;17.996;2023-03-01T03:31:29;102287.23;;;-2.66;71.85
75553;BME280;64136;53.118;17.996;2023-03-01T03:33:55;102280.23;;;-2.70;72.14
75553;BME280;64136;53.118;17.996;2023-03-01T03:36:24;102278.05;;;-2.75;72.36
75553;BME280;64136;53.118;17.996;2023-03-01T03:38:51;102277.09;;;-2.82;72.56
75553;BME280;64136;53.118;17.996;2023-03-01T03:41:17;102272.67;;;-2.87;72.95
75553;BME280;64136;53.118;17.996;2023-03-01T03:43:44;102268.63;;;-2.91;72.68
75553;BME280;64136;53.118;17.996;2023-03-01T03:46:11;102264.79;;;-2.92;72.60
75553;BME280;64136;53.118;17.996;2023-03-01T03:48:43;102263.70;;;-2.94;72.94
75553;BME280;64136;53.118;17.996;2023-03-01T03:51:12;102263.79;;;-2.97;73.00
75553;BME280;64136;53.118;17.996;2023-03-01T03:53:39;102260.80;;;-3.01;73.08
75553;BME280;64136;53.118;17.996;2023-03-01T03:58:32;102262.38;;;-3.00;73.28
75553;BME280;64136;53.118;17.996;2023-03-01T04:00:59;102263.09;;;-2.99;73.12
75553;BME280;64136;53.118;17.996;2023-03-01T04:05:54;102261.19;;;-2.98;73.08
75553;BME280;64136;53.118;17.996;2023-03-01T04:08:22;102265.87;;;-2.98;73.07
75553;BME280;64136;53.118;17.996;2023-03-01T04:10:50;102268.80;;;-2.99;73.40
75553;BME280;64136;53.118;17.996;2023-03-01T04:13:20;102270.89;;;-2.99;73.07
75553;BME280;64136;53.118;17.996;2023-03-01T04:15:51;102271.99;;;-2.95;73.05
75553;BME280;64136;53.118;17.996;2023-03-01T04:18:19;102269.84;;;-2.91;72.69
75553;BME280;64136;53.118;17.996;2023-03-01T04:23:16;102275.45;;;-2.86;72.69
75553;BME280;64136;53.118;17.996;2023-03-01T04:25:47;102276.02;;;-2.84;72.76
75553;BME280;64136;53.118;17.996;2023-03-01T04:28:25;102275.87;;;-2.82;72.55
75553;BME280;64136;53.118;17.996;2023-03-01T04:30:54;102281.95;;;-2.82;72.85
75553;BME280;64136;53.118;17.996;2023-03-01T04:35:47;102276.79;;;-2.79;72.53
75553;BME280;64136;53.118;17.996;2023-03-01T04:40:42;102255.63;;;-2.79;72.83
75553;BME280;64136;53.118;17.996;2023-03-01T04:43:10;102254.76;;;-2.79;72.87
75553;BME280;64136;53.118;17.996;2023-03-01T04:45:37;102251.26;;;-2.81;73.05
75553;BME280;64136;53.118;17.996;2023-03-01T04:48:04;102253.98;;;-2.85;72.99
75553;BME280;64136;53.118;17.996;2023-03-01T04:50:31;102255.67;;;-2.87;73.11
75553;BME280;64136;53.118;17.996;2023-03-01T04:52:58;102256.89;;;-2.87;73.15
75553;BME280;64136;53.118;17.996;2023-03-01T04:57:54;102246.95;;;-2.91;73.50
75553;BME280;64136;53.118;17.996;2023-03-01T05:00:22;102242.27;;;-2.92;73.53
75553;BME280;64136;53.118;17.996;2023-03-01T05:02:52;102242.70;;;-2.95;73.62
75553;BME280;64136;53.118;17.996;2023-03-01T05:05:26;102241.40;;;-3.00;74.06
75553;BME280;64136;53.118;17.996;2023-03-01T05:07:55;102242.90;;;-3.04;74.28
75553;BME280;64136;53.118;17.996;2023-03-01T05:10:23;102244.43;;;-3.05;74.42
75553;BME280;64136;53.118;17.996;2023-03-01T05:15:18;102250.92;;;-3.01;74.30
75553;BME280;64136;53.118;17.996;2023-03-01T05:17:49;102256.66;;;-2.99;74.18
75553;BME280;64136;53.118;17.996;2023-03-01T05:20:15;102258.73;;;-2.99;74.02
75553;BME280;64136;53.118;17.996;2023-03-01T05:22:42;102257.48;;;-3.02;74.16
75553;BME280;64136;53.118;17.996;2023-03-01T05:25:09;102259.71;;;-3.04;74.05
75553;BME280;64136;53.118;17.996;2023-03-01T05:27:35;102257.95;;;-3.06;74.17
75553;BME280;64136;53.118;17.996;2023-03-01T05:32:44;102250.08;;;-2.99;74.07
75553;BME280;64136;53.118;17.996;2023-03-01T05:35:14;102245.44;;;-2.96;74.16
75553;BME280;64136;53.118;17.996;2023-03-01T05:42:43;102242.59;;;-2.92;73.93
75553;BME280;64136;53.118;17.996;2023-03-01T05:45:14;102248.33;;;-2.92;74.11
75553;BME280;64136;53.118;17.996;2023-03-01T05:47:43;102247.81;;;-2.91;74.15
75553;BME280;64136;53.118;17.996;2023-03-01T05:50:18;102244.73;;;-2.88;74.08
75553;BME280;64136;53.118;17.996;2023-03-01T05:52:47;102242.21;;;-2.83;74.04
75553;BME280;64136;53.118;17.996;2023-03-01T05:55:16;102241.73;;;-2.80;73.93
75553;BME280;64136;53.118;17.996;2023-03-01T05:57:43;102246.09;;;-2.79;73.92
75553;BME280;64136;53.118;17.996;2023-03-01T06:00:12;102249.57;;;-2.79;74.10
75553;BME280;64136;53.118;17.996;2023-03-01T06:02:39;102249.97;;;-2.74;73.96
75553;BME280;64136;53.118;17.996;2023-03-01T06:05:10;102248.26;;;-2.73;73.66
75553;BME280;64136;53.118;17.996;2023-03-01T06:07:37;102254.46;;;-2.66;73.74
75553;BME280;64136;53.118;17.996;2023-03-01T06:10:05;102250.22;;;-2.60;73.50
75553;BME280;64136;53.118;17.996;2023-03-01T06:12:33;102247.67;;;-2.56;73.45
75553;BME280;64136;53.118;17.996;2023-03-01T06:15:00;102248.39;;;-2.54;73.61
75553;BME280;64136;53.118;17.996;2023-03-01T06:17:29;102251.22;;;-2.50;73.50
75553;BME280;64136;53.118;17.996;2023-03-01T06:19:58;102257.20;;;-2.47;73.20
75553;BME280;64136;53.118;17.996;2023-03-01T06:22:24;102255.36;;;-2.42;73.29
75553;BME280;64136;53.118;17.996;2023-03-01T06:24:50;102262.02;;;-2.37;73.16
75553;BME280;64136;53.118;17.996;2023-03-01T06:27:17;102263.23;;;-2.26;72.76
75553;BME280;64136;53.118;17.996;2023-03-01T06:29:43;102266.33;;;-2.15;72.44
75553;BME280;64136;53.118;17.996;2023-03-01T06:32:10;102264.06;;;-2.04;72.39
75553;BME280;64136;53.118;17.996;2023-03-01T06:34:37;102262.59;;;-1.97;72.33
75553;BME280;64136;53.118;17.996;2023-03-01T06:37:03;102264.42;;;-1.90;72.01
75553;BME280;64136;53.118;17.996;2023-03-01T06:39:32;102271.29;;;-1.83;71.93
75553;BME280;64136;53.118;17.996;2023-03-01T06:41:59;102270.52;;;-1.76;71.81
75553;BME280;64136;53.118;17.996;2023-03-01T06:44:26;102270.23;;;-1.70;71.94
75553;BME280;64136;53.118;17.996;2023-03-01T06:46:52;102272.58;;;-1.63;71.66
75553;BME280;64136;53.118;17.996;2023-03-01T06:49:19;102273.55;;;-1.56;71.05
75553;BME280;64136;53.118;17.996;2023-03-01T06:51:45;102271.37;;;-1.48;71.07
75553;BME280;64136;53.118;17.996;2023-03-01T06:54:18;102273.54;;;-1.41;70.36
75553;BME280;64136;53.118;17.996;2023-03-01T06:56:47;102274.08;;;-1.23;70.17
75553;BME280;64136;53.118;17.996;2023-03-01T06:59:16;102270.34;;;-1.15;69.77
75553;BME280;64136;53.118;17.996;2023-03-01T07:01:43;102264.16;;;-1.09;70.09
75553;BME280;64136;53.118;17.996;2023-03-01T07:04:12;102257.74;;;-1.06;70.14
75553;BME280;64136;53.118;17.996;2023-03-01T07:06:40;102254.98;;;-1.04;70.07
75553;BME280;64136;53.118;17.996;2023-03-01T07:09:06;102257.27;;;-1.01;70.02
75553;BME280;64136;53.118;17.996;2023-03-01T07:11:34;102256.09;;;-0.97;69.89
75553;BME280;64136;53.118;17.996;2023-03-01T07:14:01;102251.58;;;-0.95;69.65
75553;BME280;64136;53.118;17.996;2023-03-01T07:16:27;102248.91;;;-0.83;69.55
75553;BME280;64136;53.118;17.996;2023-03-01T07:18:54;102250.71;;;-0.75;69.03
75553;BME280;64136;53.118;17.996;2023-03-01T07:21:20;102250.23;;;-0.69;69.38
75553;BME280;64136;53.118;17.996;2023-03-01T07:23:47;102247.86;;;-0.64;68.82
75553;BME280;64136;53.118;17.996;2023-03-01T07:26:14;102239.88;;;-0.60;68.82
75553;BME280;64136;53.118;17.996;2023-03-01T07:28:40;102234.52;;;-0.54;69.02
75553;BME280;64136;53.118;17.996;2023-03-01T07:31:07;102236.83;;;-0.47;69.01
75553;BME280;64136;53.118;17.996;2023-03-01T07:33:33;102236.36;;;-0.43;68.53
75553;BME280;64136;53.118;17.996;2023-03-01T07:36:02;102239.70;;;-0.36;68.58
75553;BME280;64136;53.118;17.996;2023-03-01T07:38:29;102233.82;;;-0.29;67.84
75553;BME280;64136;53.118;17.996;2023-03-01T07:41:00;102237.05;;;-0.14;67.78
75553;BME280;64136;53.118;17.996;2023-03-01T07:43:32;102232.56;;;-0.05;67.44
75553;BME280;64136;53.118;17.996;2023-03-01T07:46:00;102227.52;;;-0.03;67.47
75553;BME280;64136;53.118;17.996;2023-03-01T07:48:30;102224.09;;;0.05;67.32
75553;BME280;64136;53.118;17.996;2023-03-01T07:51:02;102218.02;;;0.13;67.22
75553;BME280;64136;53.118;17.996;2023-03-01T07:53:32;102220.51;;;0.23;67.29
75553;BME280;64136;53.118;17.996;2023-03-01T07:56:05;102220.02;;;0.36;67.45
75553;BME280;64136;53.118;17.996;2023-03-01T07:58:37;102220.08;;;0.48;67.37
75553;BME280;64136;53.118;17.996;2023-03-01T08:01:05;102222.02;;;0.67;67.24
75553;BME280;64136;53.118;17.996;2023-03-01T08:03:33;102218.55;;;0.77;67.08
75553;BME280;64136;53.118;17.996;2023-03-01T08:06:01;102217.51;;;0.83;66.92
75553;BME280;64136;53.118;17.996;2023-03-01T08:08:28;102210.02;;;0.87;67.14
75553;BME280;64136;53.118;17.996;2023-03-01T08:10:57;102206.38;;;0.97;67.44
75553;BME280;64136;53.118;17.996;2023-03-01T08:13:32;102206.02;;;1.08;67.35
75553;BME280;64136;53.118;17.996;2023-03-01T08:16:06;102206.39;;;1.17;67.34
75553;BME280;64136;53.118;17.996;2023-03-01T08:18:33;102213.87;;;1.29;67.39
75553;BME280;64136;53.118;17.996;2023-03-01T08:21:12;102214.58;;;1.39;67.57
75553;BME280;64136;53.118;17.996;2023-03-01T08:23:40;102222.07;;;1.46;67.27
75553;BME280;64136;53.118;17.996;2023-03-01T08:26:13;102217.69;;;1.55;67.46
75553;BME280;64136;53.118;17.996;2023-03-01T08:28:41;102207.91;;;1.56;67.50
75553;BME280;64136;53.118;17.996;2023-03-01T08:31:30;102215.39;;;1.69;67.30
75553;BME280;64136;53.118;17.996;2023-03-01T08:33:59;102223.96;;;1.68;66.99
75553;BME280;64136;53.118;17.996;2023-03-01T08:36:33;102225.70;;;1.69;67.24
75553;BME280;64136;53.118;17.996;2023-03-01T08:39:17;102228.83;;;1.72;67.26
75553;BME280;64136;53.118;17.996;2023-03-01T08:41:52;102224.81;;;1.72;67.67
75553;BME280;64136;53.118;17.996;2023-03-01T08:44:19;102221.48;;;1.77;67.66
75553;BME280;64136;53.118;17.996;2023-03-01T08:46:47;102217.46;;;1.85;67.72
75553;BME280;64136;53.118;17.996;2023-03-01T08:49:17;102213.64;;;1.77;67.91
75553;BME280;64136;53.118;17.996;2023-03-01T08:52:09;102209.95;;;1.82;68.33
75553;BME280;64136;53.118;17.996;2023-03-01T08:54:39;102215.69;;;1.92;68.63
75553;BME280;64136;53.118;17.996;2023-03-01T08:57:05;102218.27;;;2.03;68.36
75553;BME280;64136;53.118;17.996;2023-03-01T08:59:32;102213.54;;;2.08;68.30
75553;BME280;64136;53.118;17.996;2023-03-01T09:02:04;102218.23;;;2.14;68.45
75553;BME280;64136;53.118;17.996;2023-03-01T09:04:31;102219.06;;;2.21;68.47
75553;BME280;64136;53.118;17.996;2023-03-01T09:07:22;102223.08;;;2.22;68.47
75553;BME280;64136;53.118;17.996;2023-03-01T09:10:10;102215.90;;;2.29;68.51
75553;BME280;64136;53.118;17.996;2023-03-01T09:12:36;102206.46;;;2.27;68.57
75553;BME280;64136;53.118;17.996;2023-03-01T09:15:03;102218.09;;;2.42;68.70
75553;BME280;64136;53.118;17.996;2023-03-01T09:17:30;102223.66;;;2.47;68.85
75553;BME280;64136;53.118;17.996;2023-03-01T09:19:57;102224.33;;;2.55;68.51
75553;BME280;64136;53.118;17.996;2023-03-01T09:22:23;102225.50;;;2.62;69.13
75553;BME280;64136;53.118;17.996;2023-03-01T09:24:49;102221.63;;;2.67;68.91
75553;BME280;64136;53.118;17.996;2023-03-01T09:27:19;102220.50;;;2.81;68.91
75553;BME280;64136;53.118;17.996;2023-03-01T09:29:45;102216.21;;;2.92;68.82
75553;BME280;64136;53.118;17.996;2023-03-01T09:32:12;102216.63;;;3.06;68.31
75553;BME280;64136;53.118;17.996;2023-03-01T09:34:38;102215.56;;;3.09;69.12
75553;BME280;64136;53.118;17.996;2023-03-01T09:37:27;102214.98;;;3.18;68.59
75553;BME280;64136;53.118;17.996;2023-03-01T09:39:54;102210.37;;;3.24;68.86
75553;BME280;64136;53.118;17.996;2023-03-01T09:42:21;102212.84;;;3.22;68.69
75553;BME280;64136;53.118;17.996;2023-03-01T09:44:56;102210.86;;;3.27;68.72
75553;BME280;64136;53.118;17.996;2023-03-01T09:47:29;102209.52;;;3.39;68.72
75553;BME280;64136;53.118;17.996;2023-03-01T09:52:54;102202.36;;;3.54;68.91
75553;BME280;64136;53.118;17.996;2023-03-01T09:56:05;102202.66;;;3.59;69.03
75553;BME280;64136;53.118;17.996;2023-03-01T09:58:49;102193.88;;;3.62;69.23
75553;BME280;64136;53.118;17.996;2023-03-01T10:07:17;102190.55;;;3.94;68.32
75553;BME280;64136;53.118;17.996;2023-03-01T10:09:48;102187.13;;;4.02;68.29
75553;BME280;64136;53.118;17.996;2023-03-01T10:15:00;102184.42;;;4.09;68.25
75553;BME280;64136;53.118;17.996;2023-03-01T10:20:23;102176.96;;;4.28;68.02
75553;BME280;64136;53.118;17.996;2023-03-01T10:22:51;102173.53;;;4.23;68.18
75553;BME280;64136;53.118;17.996;2023-03-01T10:28:17;102167.36;;;4.25;67.84
75553;BME280;64136;53.118;17.996;2023-03-01T10:30:46;102160.77;;;4.33;67.79
75553;BME280;64136;53.118;17.996;2023-03-01T10:33:22;102153.98;;;4.42;67.61
75553;BME280;64136;53.118;17.996;2023-03-01T10:35:49;102151.95;;;4.48;67.61
75553;BME280;64136;53.118;17.996;2023-03-01T10:38:17;102144.03;;;4.50;67.67
75553;BME280;64136;53.118;17.996;2023-03-01T10:40:51;102144.46;;;4.57;67.53
75553;BME280;64136;53.118;17.996;2023-03-01T10:43:43;102148.77;;;4.74;67.29
75553;BME280;64136;53.118;17.996;2023-03-01T10:46:25;102148.91;;;4.86;67.18
75553;BME280;64136;53.118;17.996;2023-03-01T10:51:46;102140.81;;;4.98;66.51
75553;BME280;64136;53.118;17.996;2023-03-01T10:54:29;102134.30;;;5.00;66.45
75553;BME280;64136;53.118;17.996;2023-03-01T10:57:02;102132.51;;;5.02;66.36
75553;BME280;64136;53.118;17.996;2023-03-01T10:59:37;102126.32;;;5.13;66.35
75553;BME280;64136;53.118;17.996;2023-03-01T11:02:20;102119.20;;;5.19;66.00
75553;BME280;64136;53.118;17.996;2023-03-01T11:07:52;102113.77;;;5.37;65.84
75553;BME280;64136;53.118;17.996;2023-03-01T11:10:22;102108.23;;;5.41;65.69
75553;BME280;64136;53.118;17.996;2023-03-01T11:12:51;102108.04;;;5.43;65.42
75553;BME280;64136;53.118;17.996;2023-03-01T11:15:26;102106.30;;;5.51;65.58
75553;BME280;64136;53.118;17.996;2023-03-01T11:17:56;102105.64;;;5.58;65.39
75553;BME280;64136;53.118;17.996;2023-03-01T11:20:31;102109.81;;;5.69;65.33
75553;BME280;64136;53.118;17.996;2023-03-01T11:23:10;102107.14;;;5.79;65.06
75553;BME280;64136;53.118;17.996;2023-03-01T11:25:40;102100.65;;;5.87;64.84
75553;BME280;64136;53.118;17.996;2023-03-01T11:28:14;102099.90;;;5.91;64.47
75553;BME280;64136;53.118;17.996;2023-03-01T11:30:58;102098.30;;;5.91;64.13
75553;BME280;64136;53.118;17.996;2023-03-01T11:33:48;102091.81;;;5.90;63.58
75553;BME280;64136;53.118;17.996;2023-03-01T11:41:26;102095.75;;;6.03;63.52
75553;BME280;64136;53.118;17.996;2023-03-01T11:52:46;102089.55;;;6.06;61.95
75553;BME280;64136;53.118;17.996;2023-03-01T11:56:38;102083.98;;;6.03;61.70
75553;BME280;64136;53.118;17.996;2023-03-01T11:58:43;102083.58;;;6.13;61.59
75553;BME280;64136;53.118;17.996;2023-03-01T12:01:32;102086.30;;;6.24;61.17
75553;BME280;64136;53.118;17.996;2023-03-01T12:04:32;102086.72;;;6.29;60.53
75553;BME280;64136;53.118;17.996;2023-03-01T12:07:36;102085.60;;;6.24;60.10
75553;BME280;64136;53.118;17.996;2023-03-01T12:24:23;102095.39;;;6.43;59.97
75553;BME280;64136;53.118;17.996;2023-03-01T12:27:28;102084.88;;;6.48;59.58
75553;BME280;64136;53.118;17.996;2023-03-01T12:38:40;102083.63;;;6.55;60.85
75553;BME280;64136;53.118;17.996;2023-03-01T12:43:58;102077.24;;;7.75;57.62
75553;BME280;64136;53.118;17.996;2023-03-01T12:46:46;102076.58;;;8.65;55.80
75553;BME280;64136;53.118;17.996;2023-03-01T12:49:24;102063.53;;;9.30;53.23
75553;BME280;64136;53.118;17.996;2023-03-01T12:52:03;102061.71;;;9.98;52.36
75553;BME280;64136;53.118;17.996;2023-03-01T12:57:26;102056.88;;;10.74;49.90
75553;BME280;64136;53.118;17.996;2023-03-01T13:02:47;102054.02;;;12.17;49.62
75553;BME280;64136;53.118;17.996;2023-03-01T13:05:29;102048.83;;;12.43;46.52
75553;BME280;64136;53.118;17.996;2023-03-01T13:08:08;102045.08;;;13.20;48.08
75553;BME280;64136;53.118;17.996;2023-03-01T13:10:44;102043.27;;;13.67;43.40
75553;BME280;64136;53.118;17.996;2023-03-01T13:13:19;102042.48;;;13.49;43.78
75553;BME280;64136;53.118;17.996;2023-03-01T13:15:47;102044.48;;;14.16;42.92
75553;BME280;64136;53.118;17.996;2023-03-01T13:18:31;102039.34;;;14.71;44.67
75553;BME280;64136;53.118;17.996;2023-03-01T13:23:31;102035.30;;;14.88;39.25
75553;BME280;64136;53.118;17.996;2023-03-01T13:26:09;102037.16;;;14.00;39.99
75553;BME280;64136;53.118;17.996;2023-03-01T13:34:39;102031.60;;;14.60;39.92
75553;BME280;64136;53.118;17.996;2023-03-01T13:37:20;102029.88;;;14.86;38.41
75553;BME280;64136;53.118;17.996;2023-03-01T13:39:47;102029.36;;;15.00;39.01
75553;BME280;64136;53.118;17.996;2023-03-01T13:45:14;102023.38;;;14.96;37.68
75553;BME280;64136;53.118;17.996;2023-03-01T13:47:42;102021.27;;;15.56;38.54
75553;BME280;64136;53.118;17.996;2023-03-01T13:50:19;102020.18;;;15.70;37.27
75553;BME280;64136;53.118;17.996;2023-03-01T13:52:50;102019.73;;;15.92;36.38
75553;BME280;64136;53.118;17.996;2023-03-01T13:55:27;102013.01;;;16.02;36.11
75553;BME280;64136;53.118;17.996;2023-03-01T13:57:59;102013.02;;;16.53;35.39
75553;BME280;64136;53.118;17.996;2023-03-01T14:00:29;102009.70;;;16.84;35.75
75553;BME280;64136;53.118;17.996;2023-03-01T14:03:05;102003.55;;;16.80;34.31
75553;BME280;64136;53.118;17.996;2023-03-01T14:05:33;102004.13;;;16.76;34.67
75553;BME280;64136;53.118;17.996;2023-03-01T14:08:00;102007.30;;;16.69;34.09
75553;BME280;64136;53.118;17.996;2023-03-01T14:13:20;102004.45;;;17.53;35.17
75553;BME280;64136;53.118;17.996;2023-03-01T14:18:52;101996.53;;;17.66;33.57
75553;BME280;64136;53.118;17.996;2023-03-01T14:21:25;101992.98;;;17.88;32.80
75553;BME280;64136;53.118;17.996;2023-03-01T14:23:52;101987.46;;;17.95;32.93
75553;BME280;64136;53.118;17.996;2023-03-01T14:28:49;101981.59;;;18.26;32.26
75553;BME280;64136;53.118;17.996;2023-03-01T14:31:32;101980.70;;;18.18;32.51
75553;BME280;64136;53.118;17.996;2023-03-01T14:34:00;101979.98;;;18.28;31.58
75553;BME280;64136;53.118;17.996;2023-03-01T14:36:29;101976.04;;;18.66;32.96
75553;BME280;64136;53.118;17.996;2023-03-01T14:38:56;101974.94;;;18.82;31.28
75553;BME280;64136;53.118;17.996;2023-03-01T14:44:04;101973.44;;;16.61;33.93
75553;BME280;64136;53.118;17.996;2023-03-01T14:46:38;101974.64;;;15.08;36.18
75553;BME280;64136;53.118;17.996;2023-03-01T14:49:13;101977.42;;;13.79;38.49
75553;BME280;64136;53.118;17.996;2023-03-01T14:51:46;101975.31;;;12.90;40.17
75553;BME280;64136;53.118;17.996;2023-03-01T14:54:29;101976.32;;;12.25;40.57
75553;BME280;64136;53.118;17.996;2023-03-01T14:57:00;101975.48;;;11.58;43.19
75553;BME280;64136;53.118;17.996;2023-03-01T15:01:57;101972.41;;;10.40;45.98
75553;BME280;64136;53.118;17.996;2023-03-01T15:04:24;101971.90;;;9.95;47.04
75553;BME280;64136;53.118;17.996;2023-03-01T15:06:54;101967.74;;;9.53;48.99
75553;BME280;64136;53.118;17.996;2023-03-01T15:09:24;101967.60;;;9.19;50.00
75553;BME280;64136;53.118;17.996;2023-03-01T15:11:50;101968.20;;;9.08;48.04
75553;BME280;64136;53.118;17.996;2023-03-01T15:19:59;101967.89;;;8.47;52.27
75553;BME280;64136;53.118;17.996;2023-03-01T15:22:26;101965.39;;;8.31;52.63